createdAt,value
2022-11-29T00:01:06.353Z,101520.06
2022-11-29T00:03:33.772Z,101523.81
2022-11-29T00:06:08.002Z,101519.47
2022-11-29T00:08:34.916Z,101522.16
2022-11-29T00:11:06.336Z,101522.16
2022-11-29T00:13:33.119Z,101521.38
2022-11-29T00:16:08.617Z,101521.09
2022-11-29T00:18:35.492Z,101531.69
2022-11-29T00:21:06.708Z,101530.84
2022-11-29T00:23:33.565Z,101529.22
2022-11-29T00:26:05.107Z,101530.06
2022-11-29T00:28:31.502Z,101534.63
2022-11-29T00:30:57.881Z,101537.91
2022-11-29T00:33:24.269Z,101533.56
2022-11-29T00:35:50.735Z,101537.91
2022-11-29T00:38:17.075Z,101534.63
2022-11-29T00:40:43.458Z,101538.38
2022-11-29T00:43:09.794Z,101531.91
2022-11-29T00:45:36.146Z,101532.50
2022-11-29T00:48:02.567Z,101538.16
2022-11-29T00:50:28.904Z,101536.25
2022-11-29T00:52:55.306Z,101534.16
2022-11-29T00:55:21.769Z,101528.75
2022-11-29T00:57:48.156Z,101536.03
2022-11-29T01:00:15.139Z,101531.44
2022-11-29T01:02:41.519Z,101532.28
2022-11-29T01:05:08.243Z,101531.44
2022-11-29T01:07:34.714Z,101529.59
2022-11-29T01:10:01.087Z,101535.78
2022-11-29T01:12:27.475Z,101542.25
2022-11-29T01:14:53.835Z,101542.03
2022-11-29T01:17:20.261Z,101547.44
2022-11-29T01:19:50.777Z,101550.13
2022-11-29T01:22:17.570Z,101546.38
2022-11-29T01:24:44.374Z,101550.94
2022-11-29T01:27:10.991Z,101549.09
2022-11-29T01:29:37.334Z,101555.28
2022-11-29T01:32:03.839Z,101559.06
2022-11-29T01:34:30.226Z,101556.34
2022-11-29T01:36:56.572Z,101565.53
2022-11-29T01:39:22.915Z,101567.16
2022-11-29T01:41:49.245Z,101559.06
2022-11-29T01:44:15.495Z,101565.31
2022-11-29T01:46:44.565Z,101573.41
2022-11-29T01:49:21.220Z,101569.41
2022-11-29T01:51:54.224Z,101569.66
2022-11-29T01:54:21.863Z,101570.72
2022-11-29T01:56:50.659Z,101574.22
2022-11-29T01:59:20.369Z,101573.16
2022-11-29T02:01:46.768Z,101570.47
2022-11-29T02:04:13.816Z,101575.84
2022-11-29T02:06:41.331Z,101584.81
2022-11-29T02:09:21.999Z,101583.97
2022-11-29T02:12:19.417Z,101574.81
2022-11-29T02:14:58.298Z,101583.97
2022-11-29T02:18:02.739Z,101585.03
2022-11-29T02:20:58.607Z,101580.69
2022-11-29T02:24:10.418Z,101584.22
2022-11-29T02:27:02.472Z,101581.16
2022-11-29T02:29:37.970Z,101582.78
2022-11-29T02:32:29.152Z,101586.56
2022-11-29T02:35:33.166Z,101585.97
2022-11-29T02:38:30.529Z,101591.16
2022-11-29T02:41:29.847Z,101591.38
2022-11-29T02:44:14.451Z,101597.84
2022-11-29T02:47:03.021Z,101591.63
2022-11-29T02:49:54.386Z,101593.97
2022-11-29T02:52:32.868Z,101602.06
2022-11-29T02:55:04.967Z,101595.00
2022-11-29T02:57:41.169Z,101606.88
2022-11-29T03:00:10.877Z,101607.47
2022-11-29T03:03:02.222Z,101618.28
2022-11-29T03:05:53.702Z,101617.47
2022-11-29T03:08:33.507Z,101620.88
2022-11-29T03:11:12.419Z,101620.53
2022-11-29T03:13:51.489Z,101618.63
2022-11-29T03:16:42.610Z,101614.28
2022-11-29T03:19:40.351Z,101620.28
2022-11-29T03:22:46.958Z,101621.56
2022-11-29T03:25:26.505Z,101628.84
2022-11-29T03:28:01.542Z,101626.38
2022-11-29T03:30:32.379Z,101638.00
2022-11-29T03:33:07.979Z,101640.13
2022-11-29T03:35:52.810Z,101640.38
2022-11-29T03:38:21.803Z,101643.06
2022-11-29T03:40:56.109Z,101643.06
2022-11-29T03:43:31.313Z,101654.34
2022-11-29T03:46:04.755Z,101649.75
2022-11-29T03:48:43.539Z,101651.97
2022-11-29T03:51:23.563Z,101653.03
2022-11-29T03:54:08.270Z,101659.50
2022-11-29T03:56:37.338Z,101660.56
2022-11-29T03:59:28.389Z,101668.06
2022-11-29T04:02:00.583Z,101667.47
2022-11-29T04:04:59.169Z,101665.22
2022-11-29T04:07:25.528Z,101662.31
2022-11-29T04:10:17.510Z,101674.97
2022-11-29T04:13:08.417Z,101678.16
2022-11-29T04:16:04.734Z,101679.78
2022-11-29T04:18:56.234Z,101677.09
2022-11-29T04:21:35.383Z,101669.00
2022-11-29T04:24:36.028Z,101677.59
2022-11-29T04:27:36.535Z,101680.75
2022-11-29T04:30:13.434Z,101686.16
2022-11-29T04:33:13.575Z,101684.50
2022-11-29T04:36:06.075Z,101689.06
2022-11-29T04:38:35.369Z,101681.22
2022-11-29T04:41:04.562Z,101679.44
2022-11-29T04:44:01.898Z,101695.03
2022-11-29T04:46:59.896Z,101696.44
2022-11-29T04:50:07.803Z,101700.44
2022-11-29T04:52:47.222Z,101698.78
2022-11-29T04:55:57.828Z,101708.28
2022-11-29T04:58:29.927Z,101704.53
2022-11-29T05:01:30.037Z,101699.97
2022-11-29T05:04:27.483Z,101712.44
2022-11-29T05:07:08.102Z,101719.94
2022-11-29T05:09:59.482Z,101720.53
2022-11-29T05:12:38.569Z,101718.28
2022-11-29T05:15:49.728Z,101730.94
2022-11-29T05:18:34.860Z,101730.75
2022-11-29T05:21:50.238Z,101737.78
2022-11-29T05:24:47.277Z,101739.19
2022-11-29T05:27:35.998Z,101741.09
2022-11-29T05:30:13.276Z,101743.53
2022-11-29T05:32:54.865Z,101745.19
2022-11-29T05:35:29.358Z,101743.53
2022-11-29T05:38:23.386Z,101746.03
2022-11-29T05:41:06.175Z,101748.13
2022-11-29T05:43:45.847Z,101749.78
2022-11-29T05:46:31.519Z,101758.09
2022-11-29T05:49:20.905Z,101753.53
2022-11-29T05:52:03.825Z,101758.09
2022-11-29T05:54:37.417Z,101763.50
2022-11-29T05:57:41.530Z,101763.16
2022-11-29T06:00:11.824Z,101768.09
2022-11-29T06:03:09.481Z,101770.19
2022-11-29T06:05:47.516Z,101776.41
2022-11-29T06:08:27.934Z,101783.69
2022-11-29T06:11:05.813Z,101780.16
2022-11-29T06:13:51.045Z,101786.41
2022-11-29T06:17:05.877Z,101783.09
2022-11-29T06:19:57.149Z,101782.25
2022-11-29T06:22:56.782Z,101783.09
2022-11-29T06:25:43.179Z,101782.50
2022-11-29T06:29:07.716Z,101782.97
2022-11-29T06:31:43.392Z,101794.81
2022-11-29T06:34:09.925Z,101801.63
2022-11-29T06:36:44.760Z,101796.47
2022-11-29T06:39:11.674Z,101805.16
2022-11-29T06:41:38.075Z,101806.81
2022-11-29T06:44:05.244Z,101810.09
2022-11-29T06:46:40.704Z,101813.84
2022-11-29T06:49:20.695Z,101811.38
2022-11-29T06:52:07.122Z,101821.38
2022-11-29T06:54:48.781Z,101819.25
2022-11-29T06:57:55.925Z,101824.66
2022-11-29T07:00:27.052Z,101830.88
2022-11-29T07:03:21.354Z,101840.88
2022-11-29T07:05:48.089Z,101835.47
2022-11-29T07:08:20.444Z,101838.75
2022-11-29T07:10:50.399Z,101838.97
2022-11-29T07:13:18.335Z,101844.38
2022-11-29T07:16:16.259Z,101840.88
2022-11-29T07:19:33.807Z,101857.06
2022-11-29T07:22:31.754Z,101859.53
2022-11-29T07:25:22.926Z,101872.81
2022-11-29T07:28:19.343Z,101870.13
2022-11-29T07:31:06.196Z,101874.47
2022-11-29T07:33:38.570Z,101874.47
2022-11-29T07:36:29.939Z,101887.72
2022-11-29T07:39:04.326Z,101879.88
2022-11-29T07:42:03.027Z,101894.19
2022-11-29T07:44:50.924Z,101889.03
2022-11-29T07:47:17.528Z,101894.44
2022-11-29T07:49:43.874Z,101893.59
2022-11-29T07:52:14.973Z,101900.28
2022-11-29T07:54:41.724Z,101896.53
2022-11-29T07:57:08.445Z,101903.56
2022-11-29T07:59:35.982Z,101908.38
2022-11-29T08:02:04.666Z,101906.72
2022-11-29T08:04:35.170Z,101906.13
2022-11-29T08:07:01.547Z,101913.19
2022-11-29T08:09:27.913Z,101913.19
2022-11-29T08:11:54.267Z,101920.22
2022-11-29T08:14:20.625Z,101925.63
2022-11-29T08:16:46.978Z,101923.13
2022-11-29T08:19:13.401Z,101931.47
2022-11-29T08:21:42.886Z,101929.59
2022-11-29T08:24:09.302Z,101930.63
2022-11-29T08:26:35.633Z,101935.22
2022-11-29T08:29:02.115Z,101930.88
2022-11-29T08:31:28.469Z,101931.94
2022-11-29T08:33:54.895Z,101931.94
2022-11-29T08:36:21.293Z,101932.28
2022-11-29T08:38:48.194Z,101935.22
2022-11-29T08:41:16.022Z,101934.19
2022-11-29T08:43:43.490Z,101934.19
2022-11-29T08:46:15.144Z,101933.13
2022-11-29T08:48:44.644Z,101938.28
2022-11-29T08:51:11.011Z,101941.00
2022-11-29T08:53:43.343Z,101941.00
2022-11-29T08:59:03.466Z,101948.50
2022-11-29T09:01:29.887Z,101952.25
2022-11-29T09:04:07.117Z,101950.97
2022-11-29T09:06:41.603Z,101958.03
2022-11-29T09:09:07.969Z,101958.03
2022-11-29T09:11:35.547Z,101955.94
2022-11-29T09:14:06.559Z,101960.28
2022-11-29T09:16:35.398Z,101964.41
2022-11-29T09:19:02.107Z,101958.81
2022-11-29T09:21:30.935Z,101964.19
2022-11-29T09:23:59.975Z,101961.06
2022-11-29T09:26:32.456Z,101964.56
2022-11-29T09:29:03.654Z,101976.22
2022-11-29T09:31:33.591Z,101970.81
2022-11-29T09:34:00.022Z,101977.88
2022-11-29T09:36:29.425Z,101972.66
2022-11-29T09:38:57.126Z,101982.66
2022-11-29T09:41:37.426Z,101982.41
2022-11-29T09:44:16.891Z,101986.56
2022-11-29T09:46:50.491Z,101995.25
2022-11-29T09:49:55.172Z,101998.56
2022-11-29T09:52:46.606Z,102000.44
2022-11-29T09:55:35.767Z,102007.25
2022-11-29T09:58:05.735Z,102007.88
2022-11-29T10:00:37.949Z,102007.88
2022-11-29T10:03:23.291Z,102004.13
2022-11-29T10:05:56.185Z,102005.75
2022-11-29T10:08:26.352Z,102008.47
2022-11-29T10:10:58.461Z,102010.97
2022-11-29T10:13:35.833Z,102015.06
2022-11-29T10:16:14.250Z,102015.06
2022-11-29T10:18:48.972Z,102022.97
2022-11-29T10:21:24.038Z,102017.34
2022-11-29T10:23:57.544Z,102007.13
2022-11-29T10:26:25.879Z,102011.47
2022-11-29T10:28:57.498Z,102009.63
2022-11-29T10:31:27.552Z,102005.88
2022-11-29T10:33:55.803Z,102010.81
2022-11-29T10:36:29.173Z,102006.03
2022-11-29T10:38:59.434Z,102009.53
2022-11-29T10:41:27.023Z,102006.63
2022-11-29T10:43:56.730Z,102005.78
2022-11-29T10:46:34.616Z,102011.19
2022-11-29T10:49:04.550Z,102011.19
2022-11-29T10:51:31.893Z,102009.69
2022-11-29T10:54:27.055Z,102011.56
2022-11-29T10:56:56.246Z,102009.94
2022-11-29T10:59:25.428Z,102012.63
2022-11-29T11:01:52.046Z,102006.16
2022-11-29T11:04:31.223Z,102014.88
2022-11-29T11:07:04.206Z,102012.53
2022-11-29T11:09:34.133Z,102010.44
2022-11-29T11:12:03.865Z,102002.72
2022-11-29T11:14:37.769Z,102003.47
2022-11-29T11:17:32.963Z,102000.53
2022-11-29T11:20:20.205Z,102003.47
2022-11-29T11:23:20.809Z,102003.00
2022-11-29T11:25:50.074Z,102003.81
2022-11-29T11:28:26.070Z,101999.06
2022-11-29T11:30:57.330Z,102002.19
2022-11-29T11:33:36.340Z,102009.25
2022-11-29T11:36:20.523Z,102012.56
2022-11-29T11:38:53.852Z,102014.22
2022-11-29T11:41:45.940Z,102015.88
2022-11-29T11:44:48.276Z,102016.09
2022-11-29T11:47:24.311Z,102006.72
2022-11-29T11:49:56.521Z,102011.06
2022-11-29T11:52:30.239Z,102017.88
2022-11-29T11:55:07.304Z,102023.28
2022-11-29T11:57:34.129Z,102020.59
2022-11-29T12:00:06.358Z,102020.38
2022-11-29T12:02:40.325Z,102027.44
2022-11-29T12:05:15.387Z,102021.19
2022-11-29T12:08:07.454Z,102030.13
2022-11-29T12:10:34.850Z,102032.84
2022-11-29T12:13:02.363Z,102033.19
2022-11-29T12:15:34.536Z,102030.28
2022-11-29T12:18:12.354Z,102035.69
2022-11-29T12:20:56.953Z,102037.19
2022-11-29T12:23:32.659Z,102035.41
2022-11-29T12:26:06.236Z,102042.00
2022-11-29T12:28:38.444Z,102046.97
2022-11-29T12:31:24.486Z,102042.97
2022-11-29T12:34:23.422Z,102049.81
2022-11-29T12:36:52.691Z,102051.47
2022-11-29T12:39:45.418Z,102051.81
2022-11-29T12:42:30.558Z,102054.53
2022-11-29T12:45:19.366Z,102059.72
2022-11-29T12:48:14.574Z,102067.59
2022-11-29T12:51:09.339Z,102063.38
2022-11-29T12:54:33.195Z,102080.00
2022-11-29T12:57:15.923Z,102068.34
2022-11-29T13:00:14.185Z,102073.53
2022-11-29T13:03:16.704Z,102077.91
2022-11-29T13:06:03.041Z,102074.59
2022-11-29T13:08:40.171Z,102066.25
2022-11-29T13:11:22.015Z,102072.25
2022-11-29T13:14:34.768Z,102076.84
2022-11-29T13:17:00.028Z,102079.56
2022-11-29T13:19:55.087Z,102079.56
2022-11-29T13:22:58.020Z,102081.22
2022-11-29T13:25:35.713Z,102082.88
2022-11-29T13:28:07.374Z,102082.88
2022-11-29T13:30:35.003Z,102086.16
2022-11-29T13:33:16.381Z,102077.00
2022-11-29T13:35:56.910Z,102080.31
2022-11-29T13:38:30.600Z,102085.72
2022-11-29T13:41:06.470Z,102087.38
2022-11-29T13:43:54.228Z,102088.41
2022-11-29T13:46:35.820Z,102085.25
2022-11-29T13:49:02.407Z,102093.97
2022-11-29T13:51:28.704Z,102098.09
2022-11-29T13:53:56.827Z,102087.25
2022-11-29T13:56:46.507Z,102090.78
2022-11-29T13:59:31.257Z,102097.03
2022-11-29T14:01:59.143Z,102099.97
2022-11-29T14:04:34.456Z,102099.16
2022-11-29T14:07:08.054Z,102092.06
2022-11-29T14:09:45.586Z,102090.22
2022-11-29T14:12:47.483Z,102090.66
2022-11-29T14:15:24.295Z,102081.13
2022-11-29T14:18:08.594Z,102085.72
2022-11-29T14:20:43.996Z,102093.00
2022-11-29T14:23:15.982Z,102088.28
2022-11-29T14:26:05.606Z,102093.09
2022-11-29T14:28:38.632Z,102087.53
2022-11-29T14:31:06.645Z,102095.03
2022-11-29T14:34:00.342Z,102088.44
2022-11-29T14:36:50.131Z,102092.25
2022-11-29T14:39:58.647Z,102098.56
2022-11-29T14:42:26.653Z,102102.41
2022-11-29T14:45:01.011Z,102104.91
2022-11-29T14:47:31.389Z,102107.47
2022-11-29T14:50:01.440Z,102114.97
2022-11-29T14:52:39.121Z,102102.94
2022-11-29T14:55:14.372Z,102100.69
2022-11-29T14:57:51.223Z,102108.44
2022-11-29T15:01:09.677Z,102105.13
2022-11-29T15:03:47.590Z,102109.53
2022-11-29T15:06:25.152Z,102103.50
2022-11-29T15:09:03.407Z,102106.66
2022-11-29T15:11:52.876Z,102102.75
2022-11-29T15:14:42.500Z,102106.94
2022-11-29T15:17:14.803Z,102110.31
2022-11-29T15:20:07.743Z,102116.16
2022-11-29T15:22:56.434Z,102112.00
2022-11-29T15:25:26.335Z,102119.97
2022-11-29T15:27:55.043Z,102115.03
2022-11-29T15:30:28.170Z,102122.94
2022-11-29T15:32:54.916Z,102125.03
2022-11-29T15:35:21.514Z,102124.03
2022-11-29T15:37:53.133Z,102125.31
2022-11-29T15:40:27.517Z,102119.31
2022-11-29T15:43:13.847Z,102124.28
2022-11-29T15:45:45.791Z,102125.56
2022-11-29T15:48:13.801Z,102131.41
2022-11-29T15:50:49.808Z,102131.41
2022-11-29T15:53:39.657Z,102139.28
2022-11-29T15:56:14.966Z,102138.03
2022-11-29T15:58:43.055Z,102140.28
2022-11-29T16:01:21.512Z,102144.41
2022-11-29T16:03:52.156Z,102154.59
2022-11-29T16:06:42.134Z,102151.22
2022-11-29T16:09:25.379Z,102144.56
2022-11-29T16:11:51.938Z,102144.13
2022-11-29T16:14:28.872Z,102147.44
2022-11-29T16:17:00.713Z,102143.69
2022-11-29T16:19:32.860Z,102148.66
2022-11-29T16:22:02.112Z,102150.31
2022-11-29T16:24:34.123Z,102163.81
2022-11-29T16:27:04.605Z,102155.25
2022-11-29T16:29:36.840Z,102150.69
2022-11-29T16:32:24.448Z,102147.75
2022-11-29T16:35:22.170Z,102157.28
2022-11-29T16:37:48.996Z,102153.75
2022-11-29T16:40:31.164Z,102160.81
2022-11-29T16:43:20.444Z,102162.69
2022-11-29T16:45:47.053Z,102162.69
2022-11-29T16:48:22.579Z,102160.19
2022-11-29T16:51:11.441Z,102153.75
2022-11-29T16:53:42.113Z,102162.69
2022-11-29T16:56:11.417Z,102163.50
2022-11-29T16:59:17.092Z,102163.75
2022-11-29T17:01:28.269Z,102161.03
2022-11-29T17:03:57.338Z,102164.56
2022-11-29T17:06:24.916Z,102157.28
2022-11-29T17:08:52.404Z,102167.88
2022-11-29T17:11:18.755Z,102166.22
2022-11-29T17:13:46.541Z,102162.47
2022-11-29T17:16:18.945Z,102170.56
2022-11-29T17:18:50.127Z,102174.31
2022-11-29T17:21:20.908Z,102179.72
2022-11-29T17:23:47.404Z,102175.16
2022-11-29T17:26:15.368Z,102174.13
2022-11-29T17:28:47.218Z,102170.56
2022-11-29T17:31:19.905Z,102177.63
2022-11-29T17:33:46.646Z,102177.63
2022-11-29T17:36:16.610Z,102178.47
2022-11-29T17:38:44.640Z,102184.69
2022-11-29T17:41:13.698Z,102188.44
2022-11-29T17:43:40.558Z,102186.34
2022-11-29T17:46:27.214Z,102187.38
2022-11-29T17:48:54.693Z,102188.22
2022-11-29T17:51:50.748Z,102189.88
2022-11-29T17:54:10.171Z,102190.94
2022-11-29T17:56:36.594Z,102192.78
2022-11-29T17:59:04.460Z,102188.44
2022-11-29T18:01:33.250Z,102198.19
2022-11-29T18:04:01.839Z,102201.94
2022-11-29T18:06:40.096Z,102200.91
2022-11-29T18:09:08.980Z,102204.66
2022-11-29T18:11:45.268Z,102200.91
2022-11-29T18:14:16.974Z,102200.91
2022-11-29T18:16:45.567Z,102210.06
2022-11-29T18:19:14.510Z,102205.25
2022-11-29T18:21:42.121Z,102213.59
2022-11-29T18:24:10.928Z,102214.41
2022-11-29T18:26:37.956Z,102218.78
2022-11-29T18:29:15.850Z,102218.78
2022-11-29T18:31:52.518Z,102220.44
2022-11-29T18:34:19.957Z,102225.84
2022-11-29T18:36:48.705Z,102222.09
2022-11-29T18:39:20.107Z,102218.56
2022-11-29T18:41:48.664Z,102223.13
2022-11-29T18:44:24.210Z,102226.44
2022-11-29T18:46:50.668Z,102225.63
2022-11-29T18:49:18.089Z,102228.34
2022-11-29T18:51:45.907Z,102229.13
2022-11-29T18:54:13.746Z,102225.41
2022-11-29T18:56:40.526Z,102228.09
2022-11-29T18:59:17.701Z,102237.03
2022-11-29T19:01:56.655Z,102234.34
2022-11-29T19:04:23.463Z,102232.47
2022-11-29T19:06:49.929Z,102230.81
2022-11-29T19:09:19.707Z,102238.69
2022-11-29T19:11:46.077Z,102237.84
2022-11-29T19:14:13.116Z,102239.50
2022-11-29T19:16:43.902Z,102240.13
2022-11-29T19:19:10.997Z,102235.75
2022-11-29T19:21:39.650Z,102236.59
2022-11-29T19:24:13.470Z,102238.25
2022-11-29T19:26:40.836Z,102239.91
2022-11-29T19:29:07.246Z,102243.44
2022-11-29T19:31:33.653Z,102245.09
2022-11-29T19:34:36.177Z,102238.66
2022-11-29T19:37:02.557Z,102244.03
2022-11-29T19:39:34.014Z,102246.97
2022-11-29T19:42:12.772Z,102248.84
2022-11-29T19:45:15.431Z,102242.38
2022-11-29T19:47:32.492Z,102247.78
2022-11-29T19:50:02.481Z,102254.25
2022-11-29T19:52:31.437Z,102245.09
2022-11-29T19:54:59.881Z,102247.78
2022-11-29T19:57:26.320Z,102250.50
2022-11-29T19:59:54.775Z,102254.25
2022-11-29T20:02:26.287Z,102258.59
2022-11-29T20:05:31.952Z,102265.66
2022-11-29T20:07:59.758Z,102259.44
2022-11-29T20:10:27.579Z,102262.34
2022-11-29T20:12:58.166Z,102269.41
2022-11-29T20:15:24.888Z,102268.59
2022-11-29T20:17:58.622Z,102274.81
2022-11-29T20:20:25.171Z,102270.25
2022-11-29T20:22:52.338Z,102265.66
2022-11-29T20:25:18.861Z,102276.47
2022-11-29T20:27:45.405Z,102276.47
2022-11-29T20:30:12.494Z,102274.81
2022-11-29T20:32:39.075Z,102271.31
2022-11-29T20:35:06.136Z,102273.16
2022-11-29T20:37:51.814Z,102281.28
2022-11-29T20:40:37.116Z,102276.91
2022-11-29T20:43:51.990Z,102283.16
2022-11-29T20:46:18.782Z,102273.16
2022-11-29T20:48:46.776Z,102279.63
2022-11-29T20:51:31.928Z,102279.63
2022-11-29T20:53:58.981Z,102282.13
2022-11-29T20:56:29.457Z,102281.06
2022-11-29T20:59:04.142Z,102289.38
2022-11-29T21:01:41.979Z,102295.63
2022-11-29T21:04:08.511Z,102296.44
2022-11-29T21:06:38.768Z,102300.81
2022-11-29T21:09:08.689Z,102296.44
2022-11-29T21:11:35.339Z,102298.34
2022-11-29T21:14:03.953Z,102298.09
2022-11-29T21:16:31.620Z,102296.44
2022-11-29T21:19:00.864Z,102303.50
2022-11-29T21:21:56.717Z,102304.34
2022-11-29T21:24:29.078Z,102298.94
2022-11-29T21:26:55.647Z,102307.06
2022-11-29T21:29:23.539Z,102313.28
2022-11-29T21:31:54.584Z,102312.47
2022-11-29T21:34:21.619Z,102314.31
2022-11-29T21:36:55.887Z,102312.66
2022-11-29T21:39:28.426Z,102319.72
2022-11-29T21:41:54.938Z,102318.06
2022-11-29T21:44:28.428Z,102320.75
2022-11-29T21:46:56.896Z,102325.13
2022-11-29T21:49:24.473Z,102324.06
2022-11-29T21:51:52.917Z,102317.88
2022-11-29T21:54:19.279Z,102319.72
2022-11-29T21:56:58.411Z,102325.13
2022-11-29T21:59:24.940Z,102332.19
2022-11-29T22:01:57.453Z,102321.38
2022-11-29T22:04:26.143Z,102330.53
2022-11-29T22:06:53.633Z,102329.47
2022-11-29T22:09:24.219Z,102331.75
2022-11-29T22:11:50.703Z,102331.75
2022-11-29T22:14:18.456Z,102329.06
2022-11-29T22:17:00.831Z,102331.75
2022-11-29T22:19:32.547Z,102328.00
2022-11-29T22:22:14.332Z,102324.69
2022-11-29T22:24:41.797Z,102336.56
2022-11-29T22:27:17.702Z,102339.47
2022-11-29T22:29:44.510Z,102332.19
2022-11-29T22:32:16.179Z,102341.97
2022-11-29T22:34:42.600Z,102337.38
2022-11-29T22:37:13.078Z,102346.31
2022-11-29T22:39:41.474Z,102340.91
2022-11-29T22:42:12.028Z,102351.72
2022-11-29T22:44:40.509Z,102347.34
2022-11-29T22:47:20.075Z,102346.31
2022-11-29T22:49:50.023Z,102344.66
2022-11-29T22:52:16.407Z,102355.47
2022-11-29T22:54:42.796Z,102350.06
2022-11-29T22:57:14.354Z,102356.31
2022-11-29T22:59:41.875Z,102347.34
2022-11-29T23:02:08.317Z,102349.44
2022-11-29T23:04:44.096Z,102350.50
2022-11-29T23:07:25.097Z,102367.56
2022-11-29T23:10:00.554Z,102361.53
2022-11-29T23:12:35.217Z,102364.25
2022-11-29T23:15:02.729Z,102365.06
2022-11-29T23:17:32.199Z,102367.97
2022-11-29T23:20:03.914Z,102367.13
2022-11-29T23:22:32.479Z,102356.75
2022-11-29T23:24:59.977Z,102363.22
2022-11-29T23:27:29.556Z,102361.78
2022-11-29T23:29:55.930Z,102368.00
2022-11-29T23:32:22.419Z,102360.94
2022-11-29T23:34:49.291Z,102364.69
2022-11-29T23:37:16.795Z,102363.03
2022-11-29T23:39:45.187Z,102365.09
2022-11-29T23:42:11.568Z,102360.75
2022-11-29T23:44:39.015Z,102367.19
2022-11-29T23:47:05.496Z,102373.03
2022-11-29T23:49:35.305Z,102365.97
2022-11-29T23:52:05.710Z,102366.44
2022-11-29T23:54:36.450Z,102367.47
2022-11-29T23:57:10.926Z,102372.88
2022-11-29T23:59:39.425Z,102368.50
